Green Bay (GRB/KGRB)

Map

Destinations

Information

Location
Green Bay, WI
Local Time
19:51 / 7:51 pm
GMT Time
01:51 / 1:51 am
Gates
No FAA reported delays
METAR KGRB 250053Z 27010KT 10SM -RA OVC065 13/06 A2939 RMK AO2 RAB47 SLP955 P0000 T01280061
TAF KGRB 242333Z 2500/2524 27008KT P6SM BKN060 FM250100 27012KT P6SM SCT030 OVC050 TEMPO 2501/2503 27015G25KT SHRA BKN030 FM250300 26010G18KT P6SM SCT030 BKN060 FM251500 30012G20KT P6SM BKN035 FM252000 30013KT P6SM SCT040